sensor_id;sensor_type;location;lat;lon;timestamp;P1;durP1;ratioP1;P2;durP2;ratioP2
48363;SDS011;34170;54.364;18.582;2022-10-16T00:01:26;105.28;;;48.13;;
48363;SDS011;34170;54.364;18.582;2022-10-16T00:03:56;98.50;;;44.83;;
48363;SDS011;34170;54.364;18.582;2022-10-16T00:06:25;102.03;;;45.13;;
48363;SDS011;34170;54.364;18.582;2022-10-16T00:08:53;110.38;;;49.72;;
48363;SDS011;34170;54.364;18.582;2022-10-16T00:11:23;96.90;;;45.25;;
48363;SDS011;34170;54.364;18.582;2022-10-16T00:13:54;99.05;;;45.38;;
48363;SDS011;34170;54.364;18.582;2022-10-16T00:16:23;103.50;;;45.55;;
48363;SDS011;34170;54.364;18.582;2022-10-16T00:18:51;97.82;;;44.53;;
48363;SDS011;34170;54.364;18.582;2022-10-16T00:21:20;103.57;;;44.80;;
48363;SDS011;34170;54.364;18.582;2022-10-16T00:24:09;93.10;;;42.95;;
48363;SDS011;34170;54.364;18.582;2022-10-16T00:26:37;95.15;;;41.42;;
48363;SDS011;34170;54.364;18.582;2022-10-16T00:29:05;84.82;;;41.40;;
48363;SDS011;34170;54.364;18.582;2022-10-16T00:31:33;86.95;;;40.63;;
48363;SDS011;34170;54.364;18.582;2022-10-16T00:34:01;88.47;;;41.65;;
48363;SDS011;34170;54.364;18.582;2022-10-16T00:36:28;88.60;;;41.42;;
48363;SDS011;34170;54.364;18.582;2022-10-16T00:38:56;93.32;;;42.85;;
48363;SDS011;34170;54.364;18.582;2022-10-16T00:41:31;94.97;;;42.10;;
48363;SDS011;34170;54.364;18.582;2022-10-16T00:44:00;88.85;;;41.40;;
48363;SDS011;34170;54.364;18.582;2022-10-16T00:46:38;81.88;;;39.03;;
48363;SDS011;34170;54.364;18.582;2022-10-16T00:49:13;81.15;;;39.35;;
48363;SDS011;34170;54.364;18.582;2022-10-16T00:51:49;87.80;;;45.60;;
48363;SDS011;34170;54.364;18.582;2022-10-16T00:54:19;70.35;;;33.67;;
48363;SDS011;34170;54.364;18.582;2022-10-16T00:56:50;68.90;;;34.42;;
48363;SDS011;34170;54.364;18.582;2022-10-16T00:59:21;62.85;;;31.70;;
48363;SDS011;34170;54.364;18.582;2022-10-16T01:01:52;60.30;;;32.17;;
48363;SDS011;34170;54.364;18.582;2022-10-16T01:04:20;61.65;;;30.88;;
48363;SDS011;34170;54.364;18.582;2022-10-16T01:06:55;56.33;;;30.67;;
48363;SDS011;34170;54.364;18.582;2022-10-16T01:09:31;57.60;;;29.40;;
48363;SDS011;34170;54.364;18.582;2022-10-16T01:12:25;50.58;;;28.83;;
48363;SDS011;34170;54.364;18.582;2022-10-16T01:15:07;57.97;;;30.57;;
48363;SDS011;34170;54.364;18.582;2022-10-16T01:17:58;54.22;;;29.13;;
48363;SDS011;34170;54.364;18.582;2022-10-16T01:20:42;53.65;;;29.27;;
48363;SDS011;34170;54.364;18.582;2022-10-16T01:31:27;54.17;;;29.85;;
48363;SDS011;34170;54.364;18.582;2022-10-16T01:37:04;54.28;;;28.08;;
48363;SDS011;34170;54.364;18.582;2022-10-16T01:39:37;45.28;;;26.33;;
48363;SDS011;34170;54.364;18.582;2022-10-16T01:42:08;44.78;;;25.35;;
48363;SDS011;34170;54.364;18.582;2022-10-16T01:44:40;43.13;;;26.10;;
48363;SDS011;34170;54.364;18.582;2022-10-16T01:47:08;44.90;;;24.90;;
48363;SDS011;34170;54.364;18.582;2022-10-16T01:49:38;47.03;;;26.88;;
48363;SDS011;34170;54.364;18.582;2022-10-16T01:52:13;35.85;;;21.73;;
48363;SDS011;34170;54.364;18.582;2022-10-16T01:54:45;34.47;;;21.15;;
48363;SDS011;34170;54.364;18.582;2022-10-16T01:57:15;31.33;;;19.50;;
48363;SDS011;34170;54.364;18.582;2022-10-16T01:59:46;30.40;;;19.50;;
48363;SDS011;34170;54.364;18.582;2022-10-16T02:02:17;31.35;;;20.98;;
48363;SDS011;34170;54.364;18.582;2022-10-16T02:04:48;29.98;;;19.02;;
48363;SDS011;34170;54.364;18.582;2022-10-16T02:07:20;35.60;;;20.88;;
48363;SDS011;34170;54.364;18.582;2022-10-16T02:09:47;31.27;;;20.10;;
48363;SDS011;34170;54.364;18.582;2022-10-16T02:12:17;33.97;;;19.73;;
48363;SDS011;34170;54.364;18.582;2022-10-16T02:14:51;30.98;;;18.75;;
48363;SDS011;34170;54.364;18.582;2022-10-16T02:17:20;30.13;;;20.58;;
48363;SDS011;34170;54.364;18.582;2022-10-16T02:19:48;33.45;;;20.25;;
48363;SDS011;34170;54.364;18.582;2022-10-16T02:22:39;33.25;;;20.27;;
48363;SDS011;34170;54.364;18.582;2022-10-16T02:33:10;34.63;;;20.83;;
48363;SDS011;34170;54.364;18.582;2022-10-16T02:35:40;37.88;;;23.58;;
48363;SDS011;34170;54.364;18.582;2022-10-16T02:38:10;46.70;;;26.05;;
48363;SDS011;34170;54.364;18.582;2022-10-16T02:40:39;40.35;;;23.90;;
48363;SDS011;34170;54.364;18.582;2022-10-16T02:43:07;44.40;;;25.25;;
48363;SDS011;34170;54.364;18.582;2022-10-16T02:45:35;45.90;;;27.33;;
48363;SDS011;34170;54.364;18.582;2022-10-16T02:48:03;47.00;;;26.38;;
48363;SDS011;34170;54.364;18.582;2022-10-16T02:50:31;45.40;;;27.65;;
48363;SDS011;34170;54.364;18.582;2022-10-16T02:52:58;41.90;;;25.55;;
48363;SDS011;34170;54.364;18.582;2022-10-16T02:55:26;42.35;;;25.15;;
48363;SDS011;34170;54.364;18.582;2022-10-16T02:57:54;39.97;;;24.58;;
48363;SDS011;34170;54.364;18.582;2022-10-16T03:00:22;44.05;;;25.20;;
48363;SDS011;34170;54.364;18.582;2022-10-16T03:02:49;39.33;;;24.30;;
48363;SDS011;34170;54.364;18.582;2022-10-16T03:05:17;40.42;;;24.83;;
48363;SDS011;34170;54.364;18.582;2022-10-16T03:07:44;42.08;;;25.52;;
48363;SDS011;34170;54.364;18.582;2022-10-16T03:10:12;43.42;;;25.55;;
48363;SDS011;34170;54.364;18.582;2022-10-16T03:12:39;43.05;;;25.05;;
48363;SDS011;34170;54.364;18.582;2022-10-16T03:15:06;42.47;;;25.95;;
48363;SDS011;34170;54.364;18.582;2022-10-16T03:17:34;44.22;;;26.38;;
48363;SDS011;34170;54.364;18.582;2022-10-16T03:20:02;42.28;;;24.83;;
48363;SDS011;34170;54.364;18.582;2022-10-16T03:22:30;47.90;;;27.52;;
48363;SDS011;34170;54.364;18.582;2022-10-16T03:24:57;44.65;;;27.00;;
48363;SDS011;34170;54.364;18.582;2022-10-16T03:27:24;46.58;;;27.17;;
48363;SDS011;34170;54.364;18.582;2022-10-16T03:29:52;39.85;;;24.75;;
48363;SDS011;34170;54.364;18.582;2022-10-16T03:32:19;43.40;;;26.67;;
48363;SDS011;34170;54.364;18.582;2022-10-16T03:34:47;40.08;;;24.50;;
48363;SDS011;34170;54.364;18.582;2022-10-16T03:37:14;40.08;;;24.00;;
48363;SDS011;34170;54.364;18.582;2022-10-16T03:39:41;41.38;;;24.35;;
48363;SDS011;34170;54.364;18.582;2022-10-16T03:42:09;41.53;;;24.33;;
48363;SDS011;34170;54.364;18.582;2022-10-16T03:44:36;37.78;;;23.58;;
48363;SDS011;34170;54.364;18.582;2022-10-16T03:47:03;42.05;;;24.73;;
48363;SDS011;34170;54.364;18.582;2022-10-16T03:49:31;40.42;;;23.90;;
48363;SDS011;34170;54.364;18.582;2022-10-16T03:51:58;39.35;;;25.15;;
48363;SDS011;34170;54.364;18.582;2022-10-16T03:54:25;39.53;;;24.80;;
48363;SDS011;34170;54.364;18.582;2022-10-16T03:56:52;40.75;;;25.52;;
48363;SDS011;34170;54.364;18.582;2022-10-16T03:59:20;42.60;;;24.50;;
48363;SDS011;34170;54.364;18.582;2022-10-16T04:01:47;43.15;;;25.35;;
48363;SDS011;34170;54.364;18.582;2022-10-16T04:04:14;42.13;;;25.55;;
48363;SDS011;34170;54.364;18.582;2022-10-16T04:06:42;42.95;;;25.38;;
48363;SDS011;34170;54.364;18.582;2022-10-16T04:09:09;44.13;;;27.05;;
48363;SDS011;34170;54.364;18.582;2022-10-16T04:11:36;43.85;;;26.25;;
48363;SDS011;34170;54.364;18.582;2022-10-16T04:14:04;42.90;;;26.05;;
48363;SDS011;34170;54.364;18.582;2022-10-16T04:16:31;49.28;;;27.40;;
48363;SDS011;34170;54.364;18.582;2022-10-16T04:18:58;48.75;;;26.67;;
48363;SDS011;34170;54.364;18.582;2022-10-16T04:21:26;44.05;;;26.50;;
48363;SDS011;34170;54.364;18.582;2022-10-16T04:23:53;41.42;;;25.30;;
48363;SDS011;34170;54.364;18.582;2022-10-16T04:26:20;40.22;;;23.88;;
48363;SDS011;34170;54.364;18.582;2022-10-16T04:28:47;41.42;;;23.77;;
48363;SDS011;34170;54.364;18.582;2022-10-16T04:31:15;36.35;;;23.48;;
48363;SDS011;34170;54.364;18.582;2022-10-16T04:33:42;41.60;;;25.00;;
48363;SDS011;34170;54.364;18.582;2022-10-16T04:36:10;42.00;;;25.15;;
48363;SDS011;34170;54.364;18.582;2022-10-16T04:38:38;49.38;;;27.38;;
48363;SDS011;34170;54.364;18.582;2022-10-16T04:41:06;41.83;;;26.20;;
48363;SDS011;34170;54.364;18.582;2022-10-16T04:43:34;42.80;;;26.17;;
48363;SDS011;34170;54.364;18.582;2022-10-16T04:46:02;49.95;;;28.90;;
48363;SDS011;34170;54.364;18.582;2022-10-16T04:48:31;47.35;;;27.27;;
48363;SDS011;34170;54.364;18.582;2022-10-16T04:50:59;49.10;;;28.17;;
48363;SDS011;34170;54.364;18.582;2022-10-16T04:53:26;42.88;;;26.73;;
48363;SDS011;34170;54.364;18.582;2022-10-16T04:55:54;52.60;;;29.30;;
48363;SDS011;34170;54.364;18.582;2022-10-16T04:58:22;48.15;;;28.25;;
48363;SDS011;34170;54.364;18.582;2022-10-16T05:00:49;45.42;;;26.42;;
48363;SDS011;34170;54.364;18.582;2022-10-16T05:03:17;44.17;;;26.85;;
48363;SDS011;34170;54.364;18.582;2022-10-16T05:05:44;59.15;;;31.98;;
48363;SDS011;34170;54.364;18.582;2022-10-16T05:08:13;51.22;;;29.17;;
48363;SDS011;34170;54.364;18.582;2022-10-16T05:10:42;51.88;;;29.58;;
48363;SDS011;34170;54.364;18.582;2022-10-16T05:13:10;49.15;;;29.08;;
48363;SDS011;34170;54.364;18.582;2022-10-16T05:15:38;49.03;;;28.45;;
48363;SDS011;34170;54.364;18.582;2022-10-16T05:18:05;54.78;;;29.63;;
48363;SDS011;34170;54.364;18.582;2022-10-16T05:20:33;49.00;;;29.98;;
48363;SDS011;34170;54.364;18.582;2022-10-16T05:23:00;51.38;;;28.48;;
48363;SDS011;34170;54.364;18.582;2022-10-16T05:25:28;47.88;;;28.98;;
48363;SDS011;34170;54.364;18.582;2022-10-16T05:27:55;50.80;;;29.10;;
48363;SDS011;34170;54.364;18.582;2022-10-16T05:30:23;47.03;;;27.27;;
48363;SDS011;34170;54.364;18.582;2022-10-16T05:32:50;49.38;;;28.42;;
48363;SDS011;34170;54.364;18.582;2022-10-16T05:35:18;51.13;;;29.15;;
48363;SDS011;34170;54.364;18.582;2022-10-16T05:37:46;46.63;;;29.08;;
48363;SDS011;34170;54.364;18.582;2022-10-16T05:40:14;48.97;;;29.63;;
48363;SDS011;34170;54.364;18.582;2022-10-16T05:42:41;50.72;;;29.95;;
48363;SDS011;34170;54.364;18.582;2022-10-16T05:45:09;51.10;;;30.23;;
48363;SDS011;34170;54.364;18.582;2022-10-16T05:47:38;49.92;;;29.58;;
48363;SDS011;34170;54.364;18.582;2022-10-16T05:50:06;52.80;;;31.50;;
48363;SDS011;34170;54.364;18.582;2022-10-16T05:52:33;50.30;;;30.65;;
48363;SDS011;34170;54.364;18.582;2022-10-16T05:55:01;49.03;;;30.02;;
48363;SDS011;34170;54.364;18.582;2022-10-16T05:57:28;49.47;;;29.90;;
48363;SDS011;34170;54.364;18.582;2022-10-16T05:59:55;46.90;;;28.70;;
48363;SDS011;34170;54.364;18.582;2022-10-16T06:02:23;55.35;;;31.58;;
48363;SDS011;34170;54.364;18.582;2022-10-16T06:04:51;51.45;;;30.60;;
48363;SDS011;34170;54.364;18.582;2022-10-16T06:07:20;45.72;;;28.33;;
48363;SDS011;34170;54.364;18.582;2022-10-16T06:09:49;49.72;;;29.60;;
48363;SDS011;34170;54.364;18.582;2022-10-16T06:12:17;48.90;;;29.48;;
48363;SDS011;34170;54.364;18.582;2022-10-16T06:14:45;52.25;;;31.27;;
48363;SDS011;34170;54.364;18.582;2022-10-16T06:17:16;46.15;;;29.83;;
48363;SDS011;34170;54.364;18.582;2022-10-16T06:19:43;46.45;;;29.45;;
48363;SDS011;34170;54.364;18.582;2022-10-16T06:22:10;44.83;;;29.65;;
48363;SDS011;34170;54.364;18.582;2022-10-16T06:24:37;43.85;;;29.33;;
48363;SDS011;34170;54.364;18.582;2022-10-16T06:27:05;45.17;;;28.75;;
48363;SDS011;34170;54.364;18.582;2022-10-16T06:29:33;42.80;;;27.45;;
48363;SDS011;34170;54.364;18.582;2022-10-16T06:32:00;42.28;;;28.17;;
48363;SDS011;34170;54.364;18.582;2022-10-16T06:34:27;46.92;;;29.50;;
48363;SDS011;34170;54.364;18.582;2022-10-16T06:36:55;45.38;;;29.33;;
48363;SDS011;34170;54.364;18.582;2022-10-16T06:39:22;45.65;;;28.25;;
48363;SDS011;34170;54.364;18.582;2022-10-16T06:41:49;42.60;;;29.13;;
48363;SDS011;34170;54.364;18.582;2022-10-16T06:44:17;48.72;;;29.40;;
48363;SDS011;34170;54.364;18.582;2022-10-16T06:46:44;46.25;;;28.83;;
48363;SDS011;34170;54.364;18.582;2022-10-16T06:49:11;45.83;;;29.25;;
48363;SDS011;34170;54.364;18.582;2022-10-16T06:51:39;50.33;;;30.30;;
48363;SDS011;34170;54.364;18.582;2022-10-16T06:54:09;47.47;;;29.40;;
48363;SDS011;34170;54.364;18.582;2022-10-16T06:56:36;47.03;;;30.30;;
48363;SDS011;34170;54.364;18.582;2022-10-16T06:59:04;45.90;;;29.42;;
48363;SDS011;34170;54.364;18.582;2022-10-16T07:01:32;51.45;;;31.80;;
48363;SDS011;34170;54.364;18.582;2022-10-16T07:04:00;55.38;;;32.58;;
48363;SDS011;34170;54.364;18.582;2022-10-16T07:06:30;57.95;;;33.17;;
48363;SDS011;34170;54.364;18.582;2022-10-16T07:09:00;54.50;;;33.80;;
48363;SDS011;34170;54.364;18.582;2022-10-16T07:11:29;55.22;;;33.90;;
48363;SDS011;34170;54.364;18.582;2022-10-16T07:13:56;51.70;;;31.58;;
48363;SDS011;34170;54.364;18.582;2022-10-16T07:16:24;51.97;;;31.58;;
48363;SDS011;34170;54.364;18.582;2022-10-16T07:18:54;52.00;;;32.47;;
48363;SDS011;34170;54.364;18.582;2022-10-16T07:21:28;55.72;;;34.40;;
48363;SDS011;34170;54.364;18.582;2022-10-16T07:24:00;59.78;;;34.35;;
48363;SDS011;34170;54.364;18.582;2022-10-16T07:26:32;57.45;;;34.47;;
48363;SDS011;34170;54.364;18.582;2022-10-16T07:29:01;58.97;;;36.15;;
48363;SDS011;34170;54.364;18.582;2022-10-16T07:31:31;59.50;;;35.90;;
48363;SDS011;34170;54.364;18.582;2022-10-16T07:33:59;59.05;;;34.35;;
48363;SDS011;34170;54.364;18.582;2022-10-16T07:36:27;60.50;;;36.53;;
48363;SDS011;34170;54.364;18.582;2022-10-16T07:38:55;61.72;;;35.60;;
48363;SDS011;34170;54.364;18.582;2022-10-16T07:41:26;57.85;;;34.47;;
48363;SDS011;34170;54.364;18.582;2022-10-16T07:43:54;57.38;;;34.85;;
48363;SDS011;34170;54.364;18.582;2022-10-16T07:46:23;59.97;;;35.60;;
48363;SDS011;34170;54.364;18.582;2022-10-16T07:48:50;62.85;;;36.47;;
48363;SDS011;34170;54.364;18.582;2022-10-16T07:51:19;69.05;;;42.08;;
48363;SDS011;34170;54.364;18.582;2022-10-16T07:53:48;57.25;;;34.25;;
48363;SDS011;34170;54.364;18.582;2022-10-16T07:56:16;53.67;;;33.33;;
48363;SDS011;34170;54.364;18.582;2022-10-16T07:58:44;59.83;;;36.05;;
48363;SDS011;34170;54.364;18.582;2022-10-16T08:01:13;55.13;;;33.75;;
48363;SDS011;34170;54.364;18.582;2022-10-16T08:03:42;47.35;;;31.00;;
48363;SDS011;34170;54.364;18.582;2022-10-16T08:06:14;48.33;;;31.33;;
48363;SDS011;34170;54.364;18.582;2022-10-16T08:08:42;47.08;;;31.15;;
48363;SDS011;34170;54.364;18.582;2022-10-16T08:11:09;47.70;;;29.98;;
48363;SDS011;34170;54.364;18.582;2022-10-16T08:13:37;47.55;;;30.10;;
48363;SDS011;34170;54.364;18.582;2022-10-16T08:16:04;47.42;;;30.00;;
48363;SDS011;34170;54.364;18.582;2022-10-16T08:18:35;45.38;;;28.83;;
48363;SDS011;34170;54.364;18.582;2022-10-16T08:21:03;45.85;;;28.67;;
48363;SDS011;34170;54.364;18.582;2022-10-16T08:23:32;44.90;;;29.80;;
48363;SDS011;34170;54.364;18.582;2022-10-16T08:26:04;45.60;;;29.08;;
48363;SDS011;34170;54.364;18.582;2022-10-16T08:28:33;40.95;;;27.42;;
48363;SDS011;34170;54.364;18.582;2022-10-16T08:31:12;48.05;;;28.88;;
48363;SDS011;34170;54.364;18.582;2022-10-16T08:33:41;48.58;;;29.70;;
48363;SDS011;34170;54.364;18.582;2022-10-16T08:36:10;44.22;;;28.98;;
48363;SDS011;34170;54.364;18.582;2022-10-16T08:38:38;39.97;;;27.30;;
48363;SDS011;34170;54.364;18.582;2022-10-16T08:52:35;40.70;;;25.17;;
48363;SDS011;34170;54.364;18.582;2022-10-16T08:57:43;36.00;;;24.25;;
48363;SDS011;34170;54.364;18.582;2022-10-16T09:00:14;37.53;;;24.60;;
48363;SDS011;34170;54.364;18.582;2022-10-16T09:02:48;40.88;;;25.42;;
48363;SDS011;34170;54.364;18.582;2022-10-16T09:08:17;41.95;;;25.20;;
48363;SDS011;34170;54.364;18.582;2022-10-16T09:11:23;35.72;;;23.75;;
48363;SDS011;34170;54.364;18.582;2022-10-16T09:14:10;35.53;;;22.48;;
48363;SDS011;34170;54.364;18.582;2022-10-16T09:16:43;36.28;;;22.50;;
48363;SDS011;34170;54.364;18.582;2022-10-16T09:19:53;34.70;;;22.77;;
48363;SDS011;34170;54.364;18.582;2022-10-16T09:22:27;35.08;;;22.10;;
48363;SDS011;34170;54.364;18.582;2022-10-16T09:24:57;36.13;;;23.13;;
48363;SDS011;34170;54.364;18.582;2022-10-16T09:27:27;37.97;;;22.55;;
48363;SDS011;34170;54.364;18.582;2022-10-16T09:29:55;37.35;;;23.17;;
48363;SDS011;34170;54.364;18.582;2022-10-16T09:32:25;42.15;;;25.58;;
48363;SDS011;34170;54.364;18.582;2022-10-16T09:34:55;36.25;;;21.95;;
48363;SDS011;34170;54.364;18.582;2022-10-16T09:37:24;36.80;;;23.20;;
48363;SDS011;34170;54.364;18.582;2022-10-16T09:39:53;33.78;;;21.75;;
48363;SDS011;34170;54.364;18.582;2022-10-16T09:42:28;38.00;;;22.98;;
48363;SDS011;34170;54.364;18.582;2022-10-16T09:44:59;31.58;;;21.20;;
48363;SDS011;34170;54.364;18.582;2022-10-16T09:47:28;34.70;;;22.33;;
48363;SDS011;34170;54.364;18.582;2022-10-16T09:49:58;33.25;;;21.15;;
48363;SDS011;34170;54.364;18.582;2022-10-16T09:52:29;34.85;;;22.13;;
48363;SDS011;34170;54.364;18.582;2022-10-16T09:54:58;35.55;;;22.35;;
48363;SDS011;34170;54.364;18.582;2022-10-16T09:57:51;36.92;;;22.45;;
48363;SDS011;34170;54.364;18.582;2022-10-16T10:00:20;32.15;;;21.40;;
48363;SDS011;34170;54.364;18.582;2022-10-16T10:02:49;31.30;;;20.65;;
48363;SDS011;34170;54.364;18.582;2022-10-16T10:05:18;34.45;;;21.83;;
48363;SDS011;34170;54.364;18.582;2022-10-16T10:12:55;35.80;;;21.75;;
48363;SDS011;34170;54.364;18.582;2022-10-16T10:15:24;32.30;;;21.58;;
48363;SDS011;34170;54.364;18.582;2022-10-16T10:17:55;37.95;;;21.95;;
48363;SDS011;34170;54.364;18.582;2022-10-16T10:22:55;32.15;;;22.02;;
48363;SDS011;34170;54.364;18.582;2022-10-16T10:36:39;31.67;;;21.27;;
48363;SDS011;34170;54.364;18.582;2022-10-16T10:41:59;32.78;;;20.55;;
48363;SDS011;34170;54.364;18.582;2022-10-16T10:44:54;29.48;;;19.65;;
48363;SDS011;34170;54.364;18.582;2022-10-16T10:47:36;31.50;;;21.27;;
48363;SDS011;34170;54.364;18.582;2022-10-16T10:55:45;30.60;;;20.42;;
48363;SDS011;34170;54.364;18.582;2022-10-16T11:01:39;31.33;;;19.92;;
48363;SDS011;34170;54.364;18.582;2022-10-16T11:06:46;26.20;;;18.13;;
48363;SDS011;34170;54.364;18.582;2022-10-16T11:09:30;29.60;;;19.63;;
48363;SDS011;34170;54.364;18.582;2022-10-16T11:12:09;26.58;;;19.50;;
48363;SDS011;34170;54.364;18.582;2022-10-16T11:17:25;28.55;;;18.30;;
48363;SDS011;34170;54.364;18.582;2022-10-16T11:23:24;28.25;;;18.30;;
48363;SDS011;34170;54.364;18.582;2022-10-16T11:25:46;26.10;;;17.77;;
48363;SDS011;34170;54.364;18.582;2022-10-16T11:28:19;29.67;;;17.42;;
48363;SDS011;34170;54.364;18.582;2022-10-16T11:34:12;22.98;;;16.10;;
48363;SDS011;34170;54.364;18.582;2022-10-16T11:36:35;23.02;;;16.33;;
48363;SDS011;34170;54.364;18.582;2022-10-16T11:44:24;23.20;;;15.40;;
48363;SDS011;34170;54.364;18.582;2022-10-16T11:46:59;21.35;;;15.75;;
48363;SDS011;34170;54.364;18.582;2022-10-16T11:57:45;22.05;;;14.55;;
48363;SDS011;34170;54.364;18.582;2022-10-16T12:08:23;16.70;;;12.40;;
48363;SDS011;34170;54.364;18.582;2022-10-16T12:10:51;19.38;;;13.02;;
48363;SDS011;34170;54.364;18.582;2022-10-16T12:18:32;17.65;;;11.18;;
48363;SDS011;34170;54.364;18.582;2022-10-16T12:21:00;14.48;;;11.27;;
48363;SDS011;34170;54.364;18.582;2022-10-16T12:23:38;15.88;;;10.95;;
48363;SDS011;34170;54.364;18.582;2022-10-16T12:26:29;17.33;;;11.20;;
48363;SDS011;34170;54.364;18.582;2022-10-16T12:29:21;14.02;;;10.55;;
48363;SDS011;34170;54.364;18.582;2022-10-16T12:31:56;12.57;;;9.80;;
48363;SDS011;34170;54.364;18.582;2022-10-16T12:34:29;14.32;;;10.18;;
48363;SDS011;34170;54.364;18.582;2022-10-16T12:37:10;11.68;;;9.10;;
48363;SDS011;34170;54.364;18.582;2022-10-16T12:39:41;11.75;;;8.95;;
48363;SDS011;34170;54.364;18.582;2022-10-16T12:42:31;10.02;;;7.70;;
48363;SDS011;34170;54.364;18.582;2022-10-16T12:45:00;10.70;;;8.13;;
48363;SDS011;34170;54.364;18.582;2022-10-16T12:49:59;10.95;;;7.65;;
48363;SDS011;34170;54.364;18.582;2022-10-16T12:52:36;10.63;;;7.15;;
48363;SDS011;34170;54.364;18.582;2022-10-16T12:55:05;10.77;;;7.28;;
48363;SDS011;34170;54.364;18.582;2022-10-16T13:01:03;8.98;;;7.00;;
48363;SDS011;34170;54.364;18.582;2022-10-16T13:03:48;9.30;;;6.85;;
48363;SDS011;34170;54.364;18.582;2022-10-16T13:06:26;10.38;;;7.03;;
48363;SDS011;34170;54.364;18.582;2022-10-16T13:12:14;8.10;;;6.13;;
48363;SDS011;34170;54.364;18.582;2022-10-16T13:15:04;8.00;;;5.60;;
48363;SDS011;34170;54.364;18.582;2022-10-16T13:17:57;6.50;;;5.03;;
48363;SDS011;34170;54.364;18.582;2022-10-16T13:20:35;6.28;;;4.75;;
48363;SDS011;34170;54.364;18.582;2022-10-16T13:23:17;7.38;;;4.90;;
48363;SDS011;34170;54.364;18.582;2022-10-16T13:26:09;6.47;;;5.00;;
48363;SDS011;34170;54.364;18.582;2022-10-16T13:28:59;6.70;;;5.32;;
48363;SDS011;34170;54.364;18.582;2022-10-16T13:31:28;7.10;;;4.88;;
48363;SDS011;34170;54.364;18.582;2022-10-16T13:33:57;7.75;;;4.22;;
48363;SDS011;34170;54.364;18.582;2022-10-16T13:36:27;6.13;;;4.40;;
48363;SDS011;34170;54.364;18.582;2022-10-16T13:39:03;6.43;;;4.77;;
48363;SDS011;34170;54.364;18.582;2022-10-16T13:41:38;7.68;;;5.18;;
48363;SDS011;34170;54.364;18.582;2022-10-16T13:44:10;10.43;;;7.50;;
48363;SDS011;34170;54.364;18.582;2022-10-16T13:46:45;7.82;;;5.43;;
48363;SDS011;34170;54.364;18.582;2022-10-16T13:49:16;7.22;;;5.78;;
48363;SDS011;34170;54.364;18.582;2022-10-16T13:51:57;5.88;;;4.78;;
48363;SDS011;34170;54.364;18.582;2022-10-16T13:54:27;6.82;;;5.32;;
48363;SDS011;34170;54.364;18.582;2022-10-16T13:57:04;6.03;;;5.43;;
48363;SDS011;34170;54.364;18.582;2022-10-16T13:59:48;8.05;;;5.88;;
48363;SDS011;34170;54.364;18.582;2022-10-16T14:02:18;8.73;;;5.97;;
48363;SDS011;34170;54.364;18.582;2022-10-16T14:04:53;6.70;;;5.60;;
48363;SDS011;34170;54.364;18.582;2022-10-16T14:07:25;8.18;;;5.95;;
48363;SDS011;34170;54.364;18.582;2022-10-16T14:09:55;7.32;;;5.68;;
48363;SDS011;34170;54.364;18.582;2022-10-16T14:12:33;6.53;;;5.72;;
48363;SDS011;34170;54.364;18.582;2022-10-16T14:15:01;7.50;;;5.68;;
48363;SDS011;34170;54.364;18.582;2022-10-16T14:17:30;7.88;;;5.88;;
48363;SDS011;34170;54.364;18.582;2022-10-16T14:20:01;6.90;;;6.13;;
48363;SDS011;34170;54.364;18.582;2022-10-16T14:27:58;10.07;;;6.25;;
48363;SDS011;34170;54.364;18.582;2022-10-16T14:30:32;9.57;;;6.68;;
48363;SDS011;34170;54.364;18.582;2022-10-16T14:33:05;8.90;;;7.07;;
48363;SDS011;34170;54.364;18.582;2022-10-16T14:35:46;9.35;;;7.10;;
48363;SDS011;34170;54.364;18.582;2022-10-16T14:38:32;9.13;;;6.22;;
48363;SDS011;34170;54.364;18.582;2022-10-16T14:41:00;13.48;;;7.38;;
48363;SDS011;34170;54.364;18.582;2022-10-16T14:43:32;7.53;;;6.68;;
48363;SDS011;34170;54.364;18.582;2022-10-16T14:46:08;9.02;;;6.95;;
48363;SDS011;34170;54.364;18.582;2022-10-16T14:48:41;9.70;;;7.05;;
48363;SDS011;34170;54.364;18.582;2022-10-16T14:51:13;7.47;;;6.43;;
48363;SDS011;34170;54.364;18.582;2022-10-16T14:53:42;7.95;;;6.88;;
48363;SDS011;34170;54.364;18.582;2022-10-16T14:56:19;9.15;;;7.63;;
48363;SDS011;34170;54.364;18.582;2022-10-16T14:58:49;8.55;;;7.55;;
48363;SDS011;34170;54.364;18.582;2022-10-16T15:01:18;8.98;;;7.15;;
48363;SDS011;34170;54.364;18.582;2022-10-16T15:03:46;8.27;;;7.15;;
48363;SDS011;34170;54.364;18.582;2022-10-16T15:06:14;10.30;;;7.55;;
48363;SDS011;34170;54.364;18.582;2022-10-16T15:08:42;11.60;;;8.20;;
48363;SDS011;34170;54.364;18.582;2022-10-16T15:11:14;11.18;;;7.45;;
48363;SDS011;34170;54.364;18.582;2022-10-16T15:13:43;10.65;;;7.82;;
48363;SDS011;34170;54.364;18.582;2022-10-16T15:16:11;11.43;;;8.77;;
48363;SDS011;34170;54.364;18.582;2022-10-16T15:18:40;12.65;;;8.85;;
48363;SDS011;34170;54.364;18.582;2022-10-16T15:21:08;12.27;;;9.68;;
48363;SDS011;34170;54.364;18.582;2022-10-16T15:23:49;11.57;;;9.50;;
48363;SDS011;34170;54.364;18.582;2022-10-16T15:26:17;13.43;;;9.30;;
48363;SDS011;34170;54.364;18.582;2022-10-16T15:28:45;13.30;;;10.25;;
48363;SDS011;34170;54.364;18.582;2022-10-16T15:31:12;13.73;;;10.10;;
48363;SDS011;34170;54.364;18.582;2022-10-16T15:33:40;14.45;;;10.60;;
48363;SDS011;34170;54.364;18.582;2022-10-16T15:36:07;11.55;;;9.98;;
48363;SDS011;34170;54.364;18.582;2022-10-16T15:38:35;12.20;;;9.45;;
48363;SDS011;34170;54.364;18.582;2022-10-16T15:41:02;13.05;;;10.63;;
48363;SDS011;34170;54.364;18.582;2022-10-16T15:43:29;15.50;;;10.50;;
48363;SDS011;34170;54.364;18.582;2022-10-16T15:46:04;16.48;;;9.65;;
48363;SDS011;34170;54.364;18.582;2022-10-16T15:48:33;13.35;;;10.27;;
48363;SDS011;34170;54.364;18.582;2022-10-16T15:51:00;13.43;;;10.02;;
48363;SDS011;34170;54.364;18.582;2022-10-16T15:53:32;13.88;;;10.65;;
48363;SDS011;34170;54.364;18.582;2022-10-16T15:56:02;13.05;;;10.40;;
48363;SDS011;34170;54.364;18.582;2022-10-16T15:58:30;13.40;;;10.52;;
48363;SDS011;34170;54.364;18.582;2022-10-16T16:00:58;13.60;;;10.25;;
48363;SDS011;34170;54.364;18.582;2022-10-16T16:03:30;16.63;;;11.25;;
48363;SDS011;34170;54.364;18.582;2022-10-16T16:06:02;14.40;;;11.13;;
48363;SDS011;34170;54.364;18.582;2022-10-16T16:08:30;16.13;;;11.50;;
48363;SDS011;34170;54.364;18.582;2022-10-16T16:11:00;14.68;;;11.25;;
48363;SDS011;34170;54.364;18.582;2022-10-16T16:13:29;14.30;;;11.95;;
48363;SDS011;34170;54.364;18.582;2022-10-16T16:15:56;16.55;;;12.40;;
48363;SDS011;34170;54.364;18.582;2022-10-16T16:18:24;15.00;;;12.35;;
48363;SDS011;34170;54.364;18.582;2022-10-16T16:20:52;13.52;;;10.60;;
48363;SDS011;34170;54.364;18.582;2022-10-16T16:23:20;13.35;;;10.90;;
48363;SDS011;34170;54.364;18.582;2022-10-16T16:28:38;14.45;;;11.13;;
48363;SDS011;34170;54.364;18.582;2022-10-16T16:31:07;16.20;;;11.27;;
48363;SDS011;34170;54.364;18.582;2022-10-16T16:33:35;15.20;;;11.15;;
48363;SDS011;34170;54.364;18.582;2022-10-16T16:36:03;14.27;;;11.48;;
48363;SDS011;34170;54.364;18.582;2022-10-16T16:38:40;15.50;;;11.10;;